Needham Market, United Kingdom
Current Conditions -  °F | °C
As of 2:50 PM on Wednesday 22 Oct 2014 (Local Time) from EGUW Reporting Station
Broken Clouds Broken Clouds  
Wind Chill: 54°   Ceiling: 25000
Heat Index: 54°   Visibility: 6mi
Dew Point: 43°   Wind: 15mph
Humidity: 67%   Direction: 290°WNW
Pressure: 30.21"   Gusts: NA
Location:  52.16°N, 1.05°E
Report Text: EGUW 221350Z 29013KT 9999 FEW028 BKN250 12/06 Q1023 BLU NOSIG
Loading
Personal Weather Stations






























Interactive Weather Map New forecast layout! Learn more

10-Day Weather Forecast

Advertisements
Track Severe Weather on mobile